createdAt,value
2022-12-08T00:01:22.008Z,71.65
2022-12-08T00:05:42.731Z,71.44
2022-12-08T00:09:47.372Z,71.50
2022-12-08T00:13:48.988Z,70.84
2022-12-08T00:17:50.474Z,71.20
2022-12-08T00:21:53.077Z,70.79
2022-12-08T00:25:54.548Z,71.25
2022-12-08T00:29:56.239Z,70.88
2022-12-08T00:33:58.455Z,70.91
2022-12-08T00:38:00.977Z,70.87
2022-12-08T00:42:14.456Z,71.30
2022-12-08T00:46:16.841Z,70.89
2022-12-08T00:50:18.464Z,71.07
2022-12-08T00:54:20.585Z,71.21
2022-12-08T00:58:22.545Z,71.28
2022-12-08T01:02:24.919Z,71.48
2022-12-08T01:06:26.442Z,71.22
2022-12-08T01:10:28.538Z,71.12
2022-12-08T01:14:30.015Z,71.16
2022-12-08T01:18:31.878Z,71.35
2022-12-08T01:22:35.944Z,71.27
2022-12-08T01:26:37.776Z,71.97
2022-12-08T01:30:40.300Z,71.95
2022-12-08T01:34:41.970Z,72.08
2022-12-08T01:38:43.540Z,72.21
2022-12-08T01:42:45.010Z,72.24
2022-12-08T01:46:49.945Z,72.21
2022-12-08T01:50:53.740Z,71.87
2022-12-08T01:55:06.003Z,72.29
2022-12-08T01:59:07.598Z,72.45
2022-12-08T02:03:18.597Z,72.14
2022-12-08T02:07:20.394Z,72.07
2022-12-08T02:11:22.026Z,72.47
2022-12-08T02:15:46.418Z,73.25
2022-12-08T02:20:24.123Z,73.56
2022-12-08T02:24:34.284Z,73.47
2022-12-08T02:29:06.904Z,73.63
2022-12-08T02:33:34.599Z,73.96
2022-12-08T02:37:46.168Z,74.38
2022-12-08T02:41:56.685Z,74.20
2022-12-08T02:46:03.382Z,74.11
2022-12-08T02:50:06.060Z,73.17
2022-12-08T02:54:08.079Z,73.27
2022-12-08T02:58:25.033Z,72.59
2022-12-08T03:02:38.677Z,72.86
2022-12-08T03:07:03.944Z,72.91
2022-12-08T03:11:38.721Z,73.45
2022-12-08T03:15:43.527Z,73.48
2022-12-08T03:19:47.481Z,73.43
2022-12-08T03:23:53.392Z,73.57
2022-12-08T03:27:55.060Z,73.71
2022-12-08T03:32:00.226Z,74.07
2022-12-08T03:36:04.770Z,74.10
2022-12-08T03:40:09.255Z,73.91
2022-12-08T03:44:10.907Z,74.11
2022-12-08T03:48:12.370Z,74.23
2022-12-08T03:52:13.854Z,73.95
2022-12-08T03:56:30.594Z,73.76
2022-12-08T04:00:32.097Z,73.25
2022-12-08T04:04:33.603Z,73.70
2022-12-08T04:08:35.217Z,73.24
2022-12-08T04:12:36.846Z,72.17
2022-12-08T04:16:38.545Z,73.19
2022-12-08T04:20:44.745Z,72.19
2022-12-08T04:24:46.244Z,72.47
2022-12-08T04:28:47.774Z,72.72
2022-12-08T04:32:49.233Z,72.32
2022-12-08T04:36:50.766Z,72.78
2022-12-08T04:40:52.395Z,72.90
2022-12-08T04:44:53.889Z,72.33
2022-12-08T04:48:55.408Z,72.04
2022-12-08T04:52:56.883Z,72.44
2022-12-08T04:56:58.388Z,72.39
2022-12-08T05:00:59.915Z,72.54
2022-12-08T05:05:01.443Z,72.79
2022-12-08T05:09:03.051Z,72.69
2022-12-08T05:13:04.573Z,72.94
2022-12-08T05:17:10.143Z,72.50
2022-12-08T05:21:12.156Z,72.92
2022-12-08T05:25:13.689Z,73.24
2022-12-08T05:29:15.163Z,73.09
2022-12-08T05:33:17.111Z,73.28
2022-12-08T05:37:18.629Z,72.85
2022-12-08T05:41:21.409Z,72.93
2022-12-08T05:45:23.023Z,72.68
2022-12-08T05:49:24.567Z,72.82
2022-12-08T05:53:26.428Z,72.88
2022-12-08T05:57:28.108Z,72.90
2022-12-08T06:01:31.893Z,72.79
2022-12-08T06:05:34.847Z,73.36
2022-12-08T06:09:36.500Z,73.07
2022-12-08T06:13:38.025Z,73.04
2022-12-08T06:17:39.821Z,73.02
2022-12-08T06:21:41.401Z,72.87
2022-12-08T06:25:42.926Z,72.55
2022-12-08T06:29:44.591Z,72.89
2022-12-08T06:33:46.513Z,72.21
2022-12-08T06:37:48.100Z,72.58
2022-12-08T06:42:08.295Z,72.38
2022-12-08T06:46:13.781Z,71.99
2022-12-08T06:50:15.625Z,72.06
2022-12-08T06:54:17.104Z,71.50
2022-12-08T06:58:19.872Z,71.21
2022-12-08T07:02:21.464Z,71.71
2022-12-08T07:06:24.900Z,72.32
2022-12-08T07:10:26.635Z,71.47
2022-12-08T07:14:28.405Z,72.98
2022-12-08T07:18:30.331Z,72.89
2022-12-08T07:22:31.969Z,72.80
2022-12-08T07:26:33.573Z,73.51
2022-12-08T07:30:35.171Z,72.89
2022-12-08T07:34:36.735Z,73.17
2022-12-08T07:38:38.326Z,73.21
2022-12-08T07:42:39.833Z,73.56
2022-12-08T07:46:41.601Z,72.94
2022-12-08T07:50:43.368Z,72.90
2022-12-08T07:54:45.267Z,72.96
2022-12-08T07:58:46.980Z,72.49
2022-12-08T08:02:49.178Z,71.78
2022-12-08T08:06:50.787Z,71.57
2022-12-08T08:12:30.226Z,70.63
2022-12-08T08:16:38.414Z,71.03
2022-12-08T08:20:42.777Z,70.51
2022-12-08T08:24:45.277Z,70.16
2022-12-08T08:28:48.254Z,69.65
2022-12-08T08:32:50.822Z,70.06
2022-12-08T08:36:59.009Z,69.35
2022-12-08T08:41:02.862Z,69.68
2022-12-08T08:45:08.593Z,69.45
2022-12-08T08:49:10.622Z,69.03
2022-12-08T08:53:15.238Z,68.67
2022-12-08T08:57:23.659Z,68.05
2022-12-08T09:01:30.246Z,67.83
2022-12-08T09:05:34.949Z,67.22
2022-12-08T09:09:39.398Z,66.10
2022-12-08T09:14:30.970Z,64.84
2022-12-08T09:18:33.472Z,63.59
2022-12-08T09:22:35.187Z,62.82
2022-12-08T09:26:37.494Z,63.17
2022-12-08T09:30:40.774Z,57.77
2022-12-08T09:34:44.432Z,47.54
2022-12-08T09:38:51.411Z,39.84
2022-12-08T09:43:43.336Z,39.22
2022-12-08T09:47:59.781Z,38.12
2022-12-08T09:52:58.590Z,38.36
2022-12-08T09:58:08.840Z,39.29
2022-12-08T10:02:21.741Z,38.54
2022-12-08T10:06:38.617Z,39.93
2022-12-08T10:10:55.720Z,39.14
2022-12-08T10:15:35.676Z,40.50
2022-12-08T10:20:11.739Z,36.94
2022-12-08T10:24:23.473Z,37.39
2022-12-08T10:28:25.987Z,34.70
2022-12-08T10:32:35.224Z,35.06
2022-12-08T10:36:48.498Z,41.79
2022-12-08T10:40:53.287Z,46.65
2022-12-08T10:45:03.425Z,49.39
2022-12-08T10:49:34.049Z,51.45
2022-12-08T10:54:06.155Z,53.00
2022-12-08T10:58:45.117Z,52.61
2022-12-08T11:03:00.899Z,51.47
2022-12-08T11:07:06.692Z,41.90
2022-12-08T11:11:08.685Z,36.90
2022-12-08T11:15:16.494Z,35.01
2022-12-08T11:19:20.489Z,35.85
2022-12-08T11:23:27.853Z,37.89
2022-12-08T11:27:30.777Z,40.86
2022-12-08T11:31:40.749Z,44.13
2022-12-08T11:35:45.428Z,48.19
2022-12-08T11:39:51.538Z,48.58
2022-12-08T11:43:56.426Z,50.56
2022-12-08T11:48:47.803Z,52.08
2022-12-08T11:58:58.331Z,51.85
2022-12-08T12:03:08.064Z,50.59
2022-12-08T12:07:26.163Z,51.20
2022-12-08T12:12:12.372Z,51.86
2022-12-08T12:16:33.068Z,51.01
2022-12-08T12:20:56.170Z,49.65
2022-12-08T12:24:59.568Z,38.92
2022-12-08T12:29:15.573Z,32.35
2022-12-08T12:33:20.317Z,29.69
2022-12-08T12:37:36.471Z,30.21
2022-12-08T12:41:52.665Z,29.02
2022-12-08T12:46:23.146Z,32.74
2022-12-08T12:50:36.569Z,33.14
2022-12-08T12:54:42.513Z,36.76
2022-12-08T12:58:44.585Z,41.49
2022-12-08T13:02:51.669Z,42.95
2022-12-08T13:06:53.742Z,44.71
2022-12-08T13:11:04.363Z,47.77
2022-12-08T13:15:16.876Z,45.99
2022-12-08T13:19:19.401Z,47.96
2022-12-08T13:23:48.412Z,49.36
2022-12-08T13:28:21.676Z,50.64
2022-12-08T13:32:39.042Z,52.30
2022-12-08T13:36:59.601Z,53.36
2022-12-08T13:41:15.177Z,53.67
2022-12-08T13:46:12.182Z,52.13
2022-12-08T13:56:24.292Z,52.50
2022-12-08T13:59:18.517Z,54.27
2022-12-08T14:03:20.320Z,54.41
2022-12-08T14:07:45.208Z,59.08
2022-12-08T14:12:45.487Z,54.76
2022-12-08T14:17:13.079Z,55.58
2022-12-08T14:21:22.100Z,56.34
2022-12-08T14:25:56.167Z,56.75
2022-12-08T14:30:34.521Z,58.11
2022-12-08T14:35:17.017Z,61.73
2022-12-08T14:39:22.068Z,58.45
2022-12-08T14:43:45.786Z,59.43
2022-12-08T14:47:48.585Z,60.36
2022-12-08T14:51:50.215Z,60.99
2022-12-08T14:55:57.562Z,60.49
2022-12-08T15:00:19.979Z,61.29
2022-12-08T15:05:04.796Z,60.80
2022-12-08T15:09:36.749Z,61.07
2022-12-08T15:13:49.662Z,61.71
2022-12-08T15:18:19.245Z,61.08
2022-12-08T15:22:29.983Z,61.85
2022-12-08T15:26:46.176Z,61.30
2022-12-08T15:30:48.035Z,61.95
2022-12-08T15:34:50.294Z,62.04
2022-12-08T15:38:51.826Z,62.22
2022-12-08T15:42:53.813Z,62.76
2022-12-08T15:46:55.741Z,62.70
2022-12-08T15:50:57.712Z,62.62
2022-12-08T15:55:02.922Z,62.26
2022-12-08T15:59:04.582Z,63.05
2022-12-08T16:07:57.486Z,62.28
2022-12-08T16:12:18.177Z,62.43
2022-12-08T16:16:30.093Z,62.20
2022-12-08T16:21:05.462Z,61.79
2022-12-08T16:24:55.296Z,62.81
2022-12-08T16:29:01.476Z,61.61
2022-12-08T16:33:03.286Z,62.02
2022-12-08T16:38:12.545Z,62.23
2022-12-08T16:43:06.149Z,61.57
2022-12-08T16:47:13.628Z,61.84
2022-12-08T16:51:48.272Z,61.33
2022-12-08T16:55:54.187Z,61.97
2022-12-08T16:59:56.523Z,61.55
2022-12-08T17:04:29.931Z,61.67
2022-12-08T17:08:24.920Z,61.32
2022-12-08T17:12:31.587Z,61.87
2022-12-08T17:16:35.008Z,61.30
2022-12-08T17:20:38.023Z,62.03
2022-12-08T17:24:39.772Z,61.63
2022-12-08T17:29:00.125Z,61.79
2022-12-08T17:33:10.871Z,62.56
2022-12-08T17:37:15.727Z,62.99
2022-12-08T17:41:17.707Z,63.15
2022-12-08T17:45:44.008Z,62.70
2022-12-08T17:49:48.210Z,62.84
2022-12-08T17:53:49.893Z,63.11
2022-12-08T17:57:57.439Z,62.79
2022-12-08T18:06:31.211Z,62.15
2022-12-08T18:10:35.702Z,62.81
2022-12-08T18:14:37.370Z,62.86
2022-12-08T18:18:42.002Z,62.60
2022-12-08T18:23:17.594Z,62.63
2022-12-08T18:27:19.622Z,63.18
2022-12-08T18:31:22.806Z,62.95
2022-12-08T18:35:47.653Z,62.56
2022-12-08T18:40:09.350Z,62.89
2022-12-08T18:44:12.861Z,62.96
2022-12-08T18:48:24.624Z,63.24
2022-12-08T18:52:32.302Z,62.67
2022-12-08T18:56:50.063Z,63.05
2022-12-08T19:01:13.214Z,62.93
2022-12-08T19:05:15.472Z,62.95
2022-12-08T19:09:17.505Z,63.07
2022-12-08T19:13:22.618Z,62.99
2022-12-08T19:17:27.314Z,62.98
2022-12-08T19:21:29.147Z,63.17
2022-12-08T19:25:37.122Z,62.50
2022-12-08T19:29:41.630Z,62.65
2022-12-08T19:33:52.083Z,62.67
2022-12-08T19:38:13.740Z,62.45
2022-12-08T19:42:54.566Z,61.33
2022-12-08T19:47:02.182Z,61.83
2022-12-08T19:51:35.527Z,60.69
2022-12-08T19:55:59.364Z,60.17
2022-12-08T20:00:01.232Z,60.37
2022-12-08T20:04:03.432Z,59.83
2022-12-08T20:08:06.617Z,60.56
2022-12-08T20:12:28.238Z,60.34
2022-12-08T20:16:31.184Z,60.02
2022-12-08T20:20:32.971Z,60.33
2022-12-08T20:25:02.359Z,60.30
2022-12-08T20:29:50.936Z,60.61
2022-12-08T20:33:59.713Z,61.14
2022-12-08T20:38:03.283Z,62.13
2022-12-08T20:42:05.234Z,62.48
2022-12-08T20:50:34.967Z,65.28
2022-12-08T20:54:37.366Z,63.61
2022-12-08T20:58:59.223Z,64.41
2022-12-08T21:09:05.763Z,65.56
2022-12-08T21:13:14.882Z,65.45
2022-12-08T21:17:20.843Z,66.11
2022-12-08T21:21:22.722Z,66.52
2022-12-08T21:26:05.086Z,66.95
2022-12-08T21:30:12.972Z,67.28
2022-12-08T21:34:45.000Z,67.27
2022-12-08T21:39:18.287Z,67.59
2022-12-08T21:43:20.130Z,68.08
2022-12-08T21:47:27.155Z,68.46
2022-12-08T21:51:33.462Z,69.18
2022-12-08T21:56:20.765Z,69.96
2022-12-08T22:00:29.882Z,70.62
2022-12-08T22:04:31.675Z,70.81
2022-12-08T22:08:36.475Z,71.32
2022-12-08T22:12:42.929Z,71.68
2022-12-08T22:17:15.113Z,71.77
2022-12-08T22:21:18.118Z,71.82
2022-12-08T22:25:57.990Z,72.05
2022-12-08T22:29:59.885Z,72.11
2022-12-08T22:34:51.283Z,71.75
2022-12-08T22:39:18.902Z,72.27
2022-12-08T22:43:45.005Z,72.44
2022-12-08T22:47:52.359Z,72.44
2022-12-08T22:52:25.350Z,72.19
2022-12-08T23:03:08.854Z,71.67
2022-12-08T23:07:10.637Z,71.71
2022-12-08T23:11:49.281Z,71.43
2022-12-08T23:16:16.315Z,71.52
2022-12-08T23:20:19.103Z,71.54
2022-12-08T23:25:11.272Z,71.63
2022-12-08T23:30:03.052Z,71.22
2022-12-08T23:34:05.044Z,71.36
2022-12-08T23:38:06.683Z,71.61
2022-12-08T23:42:08.266Z,71.44
2022-12-08T23:46:09.863Z,71.35
2022-12-08T23:50:12.274Z,71.05
2022-12-08T23:54:49.775Z,71.40
2022-12-08T23:59:42.719Z,71.35
